createdAt,value
2023-11-24T00:02:25.115Z,16.57
2023-11-24T00:04:51.912Z,16.57
2023-11-24T00:07:18.767Z,16.55
2023-11-24T00:09:45.585Z,16.55
2023-11-24T00:12:12.620Z,16.53
2023-11-24T00:14:39.443Z,16.57
2023-11-24T00:17:06.251Z,16.51
2023-11-24T00:19:33.147Z,16.51
2023-11-24T00:21:59.955Z,16.52
2023-11-24T00:24:27.000Z,16.50
2023-11-24T00:26:53.939Z,16.49
2023-11-24T00:29:20.926Z,16.50
2023-11-24T00:31:47.719Z,16.46
2023-11-24T00:34:14.586Z,16.47
2023-11-24T00:36:41.439Z,16.47
2023-11-24T00:39:08.236Z,16.44
2023-11-24T00:41:35.042Z,16.47
2023-11-24T00:44:01.876Z,16.43
2023-11-24T00:46:28.732Z,16.44
2023-11-24T00:48:55.566Z,16.43
2023-11-24T00:51:22.686Z,16.46
2023-11-24T00:53:49.568Z,16.54
2023-11-24T00:56:16.435Z,16.54
2023-11-24T00:58:43.226Z,16.54
2023-11-24T01:01:10.076Z,16.60
2023-11-24T01:03:37.011Z,16.57
2023-11-24T01:06:03.902Z,16.62
2023-11-24T01:08:30.699Z,16.62
2023-11-24T01:10:57.724Z,16.59
2023-11-24T01:13:24.583Z,16.52
2023-11-24T01:15:51.702Z,16.46
2023-11-24T01:18:18.832Z,16.48
2023-11-24T01:20:45.750Z,16.41
2023-11-24T01:23:12.748Z,16.42
2023-11-24T01:25:39.571Z,16.42
2023-11-24T01:28:06.376Z,16.51
2023-11-24T01:30:33.285Z,16.56
2023-11-24T01:33:00.184Z,16.54
2023-11-24T01:35:27.142Z,16.56
2023-11-24T01:37:54.027Z,16.64
2023-11-24T01:40:21.094Z,16.63
2023-11-24T01:42:48.006Z,16.73
2023-11-24T01:45:14.855Z,16.79
2023-11-24T01:47:41.703Z,16.81
2023-11-24T01:50:08.510Z,16.92
2023-11-24T01:52:35.296Z,16.99
2023-11-24T01:55:02.173Z,17.01
2023-11-24T01:57:29.078Z,17.03
2023-11-24T01:59:55.921Z,17.05
2023-11-24T02:02:22.981Z,17.04
2023-11-24T02:04:49.904Z,16.98
2023-11-24T02:07:16.684Z,16.98
2023-11-24T02:09:43.705Z,17.06
2023-11-24T02:12:10.595Z,17.02
2023-11-24T02:14:37.600Z,17.05
2023-11-24T02:17:04.463Z,17.02
2023-11-24T02:19:31.353Z,17.02
2023-11-24T02:21:58.214Z,17.04
2023-11-24T02:24:25.046Z,17.04
2023-11-24T02:26:51.968Z,17.10
2023-11-24T02:29:18.804Z,17.05
2023-11-24T02:31:45.623Z,17.07
2023-11-24T02:34:12.790Z,17.10
2023-11-24T02:36:39.737Z,17.10
2023-11-24T02:39:06.849Z,17.12
2023-11-24T02:41:33.936Z,17.13
2023-11-24T02:44:00.754Z,17.09
2023-11-24T02:46:27.558Z,17.13
2023-11-24T02:48:54.679Z,17.14
2023-11-24T02:51:21.788Z,17.20
2023-11-24T02:53:48.640Z,17.26
2023-11-24T02:56:15.567Z,17.27
2023-11-24T02:58:42.574Z,17.26
2023-11-24T03:01:09.566Z,17.25
2023-11-24T03:03:36.463Z,17.25
2023-11-24T03:06:03.258Z,17.38
2023-11-24T03:08:30.099Z,17.37
2023-11-24T03:10:56.966Z,17.30
2023-11-24T03:13:23.929Z,17.24
2023-11-24T03:15:50.799Z,17.24
2023-11-24T03:18:17.608Z,17.28
2023-11-24T03:20:44.556Z,17.27
2023-11-24T03:23:11.329Z,17.29
2023-11-24T03:25:38.197Z,17.28
2023-11-24T03:28:05.041Z,17.31
2023-11-24T03:30:31.964Z,17.32
2023-11-24T03:32:58.821Z,17.32
2023-11-24T03:35:25.660Z,17.29
2023-11-24T03:37:52.563Z,17.30
2023-11-24T03:40:19.317Z,17.33
2023-11-24T03:42:46.200Z,17.33
2023-11-24T03:45:12.993Z,17.30
2023-11-24T03:47:40.132Z,17.36
2023-11-24T03:50:07.008Z,17.39
2023-11-24T03:52:33.897Z,17.37
2023-11-24T03:55:00.745Z,17.43
2023-11-24T03:57:27.645Z,17.44
2023-11-24T03:59:54.510Z,17.41
2023-11-24T04:02:21.644Z,17.44
2023-11-24T04:04:48.452Z,17.46
2023-11-24T04:07:15.251Z,17.47
2023-11-24T04:09:42.064Z,17.45
2023-11-24T04:12:08.933Z,17.44
2023-11-24T04:14:35.742Z,17.48
2023-11-24T04:17:02.630Z,17.52
2023-11-24T04:19:29.486Z,17.52
2023-11-24T04:21:56.334Z,17.53
2023-11-24T04:24:23.308Z,17.52
2023-11-24T04:26:50.295Z,17.53
2023-11-24T04:29:17.097Z,17.58
2023-11-24T04:31:44.046Z,17.54
2023-11-24T04:34:10.937Z,17.55
2023-11-24T04:36:37.851Z,17.61
2023-11-24T04:39:04.787Z,17.48
2023-11-24T04:41:31.639Z,17.48
2023-11-24T04:43:58.448Z,17.48
2023-11-24T04:46:25.266Z,17.45
2023-11-24T04:48:52.129Z,17.43
2023-11-24T04:51:19.007Z,17.34
2023-11-24T04:53:45.792Z,17.27
2023-11-24T04:56:12.694Z,17.37
2023-11-24T04:58:39.522Z,17.39
2023-11-24T05:01:06.461Z,17.45
2023-11-24T05:03:33.435Z,17.66
2023-11-24T05:06:00.310Z,17.57
2023-11-24T05:08:27.111Z,17.51
2023-11-24T05:10:53.980Z,17.49
2023-11-24T05:13:20.982Z,17.33
2023-11-24T05:15:47.945Z,17.44
2023-11-24T05:18:14.830Z,17.49
2023-11-24T05:20:41.627Z,17.45
2023-11-24T05:23:08.547Z,17.51
2023-11-24T05:25:35.374Z,17.46
2023-11-24T05:28:02.235Z,17.47
2023-11-24T05:30:29.134Z,17.48
2023-11-24T05:32:56.024Z,17.50
2023-11-24T05:35:22.878Z,17.54
2023-11-24T05:37:49.836Z,17.51
2023-11-24T05:40:16.738Z,17.40
2023-11-24T05:42:43.633Z,17.40
2023-11-24T05:45:10.518Z,17.38
2023-11-24T05:47:37.338Z,17.34
2023-11-24T05:50:04.255Z,17.36
2023-11-24T05:52:31.248Z,17.35
2023-11-24T05:54:58.314Z,17.37
2023-11-24T05:57:25.132Z,17.35
2023-11-24T05:59:52.298Z,17.38
2023-11-24T06:02:19.166Z,17.34
2023-11-24T06:04:46.075Z,17.32
2023-11-24T06:07:12.969Z,17.31
2023-11-24T06:09:39.798Z,17.47
2023-11-24T06:12:06.615Z,17.48
2023-11-24T06:14:33.492Z,17.49
2023-11-24T06:17:00.325Z,17.50
2023-11-24T06:19:27.187Z,17.42
2023-11-24T06:21:54.170Z,17.33
2023-11-24T06:24:20.998Z,17.25
2023-11-24T06:26:49.244Z,17.21
2023-11-24T06:29:16.058Z,17.28
2023-11-24T06:31:42.945Z,17.23
2023-11-24T06:34:09.894Z,17.36
2023-11-24T06:36:36.752Z,17.54
2023-11-24T06:39:03.643Z,17.56
2023-11-24T06:41:30.620Z,17.51
2023-11-24T06:43:57.442Z,17.47
2023-11-24T06:46:24.263Z,17.44
2023-11-24T06:48:51.314Z,17.46
2023-11-24T06:51:18.153Z,17.47
2023-11-24T06:53:45.181Z,17.46
2023-11-24T06:56:12.164Z,17.47
2023-11-24T06:58:38.964Z,17.45
2023-11-24T07:01:05.846Z,17.43
2023-11-24T07:03:32.728Z,17.48
2023-11-24T07:05:59.580Z,17.46
2023-11-24T07:08:26.382Z,17.46
2023-11-24T07:10:53.288Z,17.50
2023-11-24T07:13:20.214Z,17.50
2023-11-24T07:15:47.126Z,17.49
2023-11-24T07:18:14.091Z,17.48
2023-11-24T07:20:41.102Z,17.50
2023-11-24T07:23:07.900Z,17.52
2023-11-24T07:25:34.761Z,17.49
2023-11-24T07:28:01.589Z,17.50
2023-11-24T07:30:28.482Z,17.53
2023-11-24T07:32:55.319Z,17.50
2023-11-24T07:35:22.165Z,17.50
2023-11-24T07:37:48.993Z,17.55
2023-11-24T07:40:16.546Z,17.55
2023-11-24T07:42:43.592Z,17.54
2023-11-24T07:45:10.522Z,17.53
2023-11-24T07:47:37.363Z,17.53
2023-11-24T07:50:04.189Z,17.57
2023-11-24T07:52:31.016Z,17.53
2023-11-24T07:54:57.873Z,17.54
2023-11-24T07:57:24.802Z,17.57
2023-11-24T07:59:51.763Z,17.54
2023-11-24T08:02:18.779Z,17.60
2023-11-24T08:04:45.825Z,17.57
2023-11-24T08:07:12.665Z,17.58
2023-11-24T08:09:39.502Z,17.60
2023-11-24T08:12:06.297Z,17.61
2023-11-24T08:14:33.170Z,17.59
2023-11-24T08:17:00.202Z,17.62
2023-11-24T08:19:27.156Z,17.64
2023-11-24T08:21:54.142Z,17.61
2023-11-24T08:24:21.050Z,17.65
2023-11-24T08:26:47.848Z,17.66
2023-11-24T08:29:14.812Z,17.68
2023-11-24T08:31:41.630Z,17.71
2023-11-24T08:34:08.557Z,17.69
2023-11-24T08:36:35.469Z,17.74
2023-11-24T08:39:02.422Z,17.71
2023-11-24T08:41:35.536Z,17.74
2023-11-24T08:44:07.386Z,17.72
2023-11-24T08:46:34.529Z,17.75
2023-11-24T08:49:01.612Z,17.76
2023-11-24T08:51:28.454Z,17.74
2023-11-24T08:53:55.285Z,17.77
2023-11-24T08:56:22.369Z,17.74
2023-11-24T08:58:49.215Z,17.75
2023-11-24T09:01:16.006Z,17.76
2023-11-24T09:03:42.971Z,17.81
2023-11-24T09:06:09.857Z,17.81
2023-11-24T09:08:36.635Z,17.81
2023-11-24T09:11:03.532Z,17.83
2023-11-24T09:13:30.429Z,17.86
2023-11-24T09:15:57.331Z,17.90
2023-11-24T09:18:24.200Z,17.91
2023-11-24T09:20:51.041Z,17.88
2023-11-24T09:23:18.326Z,17.92
2023-11-24T09:25:45.414Z,17.93
2023-11-24T09:28:12.422Z,17.94
2023-11-24T09:30:39.452Z,18.00
2023-11-24T09:33:06.593Z,18.02
2023-11-24T09:35:33.604Z,18.06
2023-11-24T09:38:12.667Z,18.07
2023-11-24T09:40:39.663Z,18.09
2023-11-24T09:43:06.496Z,18.09
2023-11-24T09:45:33.370Z,18.08
2023-11-24T09:48:00.387Z,18.12
2023-11-24T09:50:27.894Z,18.11
2023-11-24T09:52:55.287Z,18.22
2023-11-24T09:55:23.821Z,18.19
2023-11-24T09:57:51.926Z,18.24
2023-11-24T10:00:18.743Z,18.24
2023-11-24T10:02:45.735Z,18.22
2023-11-24T10:05:12.842Z,18.23
2023-11-24T10:07:39.622Z,18.25
2023-11-24T10:10:06.486Z,18.26
2023-11-24T10:12:33.459Z,18.27
2023-11-24T10:15:00.329Z,18.28
2023-11-24T10:17:27.135Z,18.30
2023-11-24T10:19:53.967Z,18.32
2023-11-24T10:22:20.853Z,18.31
2023-11-24T10:24:47.657Z,18.31
2023-11-24T10:27:14.515Z,18.33
2023-11-24T10:29:41.310Z,18.35
2023-11-24T10:32:08.210Z,18.41
2023-11-24T10:34:35.259Z,18.40
2023-11-24T10:37:02.172Z,18.44
2023-11-24T10:39:29.454Z,18.42
2023-11-24T10:41:56.346Z,18.43
2023-11-24T10:44:23.376Z,18.46
2023-11-24T10:46:50.230Z,18.51
2023-11-24T10:49:17.179Z,18.49
2023-11-24T10:51:44.035Z,18.49
2023-11-24T10:54:10.969Z,18.50
2023-11-24T10:56:39.815Z,18.52
2023-11-24T10:59:07.292Z,18.53
2023-11-24T11:01:34.174Z,18.57
2023-11-24T11:04:01.881Z,18.57
2023-11-24T11:06:28.697Z,18.58
2023-11-24T11:08:55.489Z,18.61
2023-11-24T11:11:22.284Z,18.54
2023-11-24T11:13:49.075Z,18.58
2023-11-24T11:16:16.072Z,18.62
2023-11-24T11:18:42.941Z,18.65
2023-11-24T11:21:09.769Z,18.65
2023-11-24T11:23:36.569Z,18.68
2023-11-24T11:26:06.074Z,18.67
2023-11-24T11:28:33.224Z,18.68
2023-11-24T11:31:00.114Z,18.70
2023-11-24T11:33:26.989Z,18.71
2023-11-24T11:35:53.854Z,18.70
2023-11-24T11:38:21.692Z,18.74
2023-11-24T11:40:49.334Z,18.77
2023-11-24T11:43:16.198Z,18.80
2023-11-24T11:45:43.322Z,18.82
2023-11-24T11:48:10.208Z,18.69
2023-11-24T11:50:37.082Z,18.81
2023-11-24T11:53:03.961Z,18.79
2023-11-24T11:55:30.997Z,18.92
2023-11-24T11:57:58.036Z,18.90
2023-11-24T12:00:25.057Z,18.88
2023-11-24T12:02:52.048Z,18.89
2023-11-24T12:05:18.934Z,18.87
2023-11-24T12:07:45.754Z,18.86
2023-11-24T12:10:12.679Z,18.84
2023-11-24T12:12:39.695Z,18.85
2023-11-24T12:15:06.528Z,18.85
2023-11-24T12:17:33.348Z,18.84
2023-11-24T12:20:00.249Z,18.87
2023-11-24T12:22:27.137Z,18.85
2023-11-24T12:24:54.164Z,18.81
2023-11-24T12:27:21.070Z,18.82
2023-11-24T12:29:47.857Z,18.79
2023-11-24T12:32:14.715Z,18.73
2023-11-24T12:34:41.610Z,18.76
2023-11-24T12:37:08.551Z,18.73
2023-11-24T12:39:35.642Z,18.71
2023-11-24T12:42:02.506Z,18.71
2023-11-24T12:44:29.432Z,18.70
2023-11-24T12:46:56.331Z,18.66
2023-11-24T12:49:23.183Z,18.66
2023-11-24T12:51:50.042Z,18.68
2023-11-24T12:54:16.857Z,18.68
2023-11-24T12:56:43.852Z,18.70
2023-11-24T12:59:10.685Z,18.71
2023-11-24T13:01:37.557Z,18.72
2023-11-24T13:04:04.458Z,18.71
2023-11-24T13:06:31.338Z,18.78
2023-11-24T13:08:58.130Z,18.78
2023-11-24T13:11:24.962Z,18.82
2023-11-24T13:13:51.746Z,18.86
2023-11-24T13:16:18.685Z,18.86
2023-11-24T13:18:45.544Z,18.87
2023-11-24T13:21:12.367Z,18.88
2023-11-24T13:23:39.253Z,18.91
2023-11-24T13:26:06.406Z,18.93
2023-11-24T13:28:33.293Z,18.94
2023-11-24T13:31:00.236Z,18.98
2023-11-24T13:33:27.095Z,19.01
2023-11-24T13:35:54.179Z,18.98
2023-11-24T13:38:21.107Z,19.03
2023-11-24T13:40:47.909Z,19.06
2023-11-24T13:43:14.867Z,19.07
2023-11-24T13:45:41.746Z,19.08
2023-11-24T13:48:08.832Z,19.10
2023-11-24T13:50:35.703Z,19.10
2023-11-24T13:53:02.615Z,19.10
2023-11-24T13:55:29.497Z,19.10
2023-11-24T13:57:56.341Z,19.10
2023-11-24T14:00:23.370Z,19.14
2023-11-24T14:02:50.738Z,19.16
2023-11-24T14:05:17.751Z,19.16
2023-11-24T14:07:44.722Z,19.18
2023-11-24T14:10:11.522Z,19.20
2023-11-24T14:12:38.327Z,19.20
2023-11-24T14:15:05.208Z,19.22
2023-11-24T14:17:32.127Z,19.24
2023-11-24T14:19:58.916Z,19.24
2023-11-24T14:22:25.717Z,19.24
2023-11-24T14:24:52.796Z,19.28
2023-11-24T14:27:19.590Z,19.25
2023-11-24T14:29:46.446Z,19.27
2023-11-24T14:32:13.278Z,19.28
2023-11-24T14:34:40.184Z,19.27
2023-11-24T14:37:07.011Z,19.30
2023-11-24T14:39:34.089Z,19.29
2023-11-24T14:42:01.099Z,19.27
2023-11-24T14:44:27.961Z,19.30
2023-11-24T14:46:55.144Z,19.27
2023-11-24T14:49:22.333Z,19.30
2023-11-24T14:51:50.644Z,19.30
2023-11-24T14:54:18.271Z,19.29
2023-11-24T14:56:45.372Z,19.29
2023-11-24T14:59:12.388Z,19.32
2023-11-24T15:01:39.349Z,19.29
2023-11-24T15:04:06.277Z,19.28
2023-11-24T15:06:34.147Z,19.28
2023-11-24T15:09:01.276Z,19.27
2023-11-24T15:11:28.122Z,19.27
2023-11-24T15:13:54.923Z,19.29
2023-11-24T15:16:21.762Z,19.27
2023-11-24T15:18:48.613Z,19.26
2023-11-24T15:21:15.430Z,19.26
2023-11-24T15:23:42.222Z,19.28
2023-11-24T15:26:09.025Z,19.26
2023-11-24T15:28:35.916Z,19.23
2023-11-24T15:31:02.839Z,19.27
2023-11-24T15:33:29.697Z,19.27
2023-11-24T15:35:56.504Z,19.27
2023-11-24T15:38:23.292Z,19.28
2023-11-24T15:40:50.099Z,19.31
2023-11-24T15:43:16.999Z,19.30
2023-11-24T15:45:43.839Z,19.28
2023-11-24T15:48:10.686Z,19.30
2023-11-24T15:50:37.529Z,19.30
2023-11-24T15:53:04.319Z,19.29
2023-11-24T15:55:31.378Z,19.29
2023-11-24T15:57:58.220Z,19.31
2023-11-24T16:00:25.048Z,19.30
2023-11-24T16:02:52.046Z,19.30
2023-11-24T16:05:18.826Z,19.30
2023-11-24T16:07:45.603Z,19.30
2023-11-24T16:10:12.686Z,19.30
2023-11-24T16:12:39.596Z,19.31
2023-11-24T16:15:06.544Z,19.32
2023-11-24T16:17:33.668Z,19.30
2023-11-24T16:20:00.581Z,19.30
2023-11-24T16:22:27.396Z,19.29
2023-11-24T16:24:54.252Z,19.28
2023-11-24T16:27:21.241Z,19.32
2023-11-24T16:29:48.031Z,19.30
2023-11-24T16:32:14.940Z,19.32
2023-11-24T16:34:44.081Z,19.28
2023-11-24T16:37:12.224Z,19.30
2023-11-24T16:39:39.039Z,19.28
2023-11-24T16:42:06.006Z,19.27
2023-11-24T16:44:32.820Z,19.26
2023-11-24T16:46:59.767Z,19.28
2023-11-24T16:49:26.703Z,19.26
2023-11-24T16:51:53.622Z,19.27
2023-11-24T16:54:20.575Z,19.28
2023-11-24T16:56:47.358Z,19.27
2023-11-24T16:59:14.215Z,19.26
2023-11-24T17:01:41.017Z,19.28
2023-11-24T17:04:08.042Z,19.29
2023-11-24T17:06:34.899Z,19.29
2023-11-24T17:09:01.876Z,19.24
2023-11-24T17:11:28.673Z,19.27
2023-11-24T17:13:55.463Z,19.26
2023-11-24T17:16:22.453Z,19.27
2023-11-24T17:18:49.313Z,19.27
2023-11-24T17:21:16.146Z,19.27
2023-11-24T17:23:42.982Z,19.30
2023-11-24T17:26:09.770Z,19.30
2023-11-24T17:28:36.561Z,19.29
2023-11-24T17:31:05.356Z,19.32
2023-11-24T17:33:32.615Z,19.30
2023-11-24T17:35:59.422Z,19.30
2023-11-24T17:38:26.200Z,19.27
2023-11-24T17:40:53.022Z,19.28
2023-11-24T17:43:19.855Z,19.28
2023-11-24T17:45:46.682Z,19.24
2023-11-24T17:48:13.550Z,19.26
2023-11-24T17:50:40.365Z,19.24
2023-11-24T17:53:07.337Z,19.22
2023-11-24T17:55:34.170Z,19.21
2023-11-24T17:58:01.050Z,19.19
2023-11-24T18:00:27.848Z,19.17
2023-11-24T18:02:54.757Z,19.24
2023-11-24T18:05:21.615Z,19.23
2023-11-24T18:07:48.396Z,19.23
2023-11-24T18:10:15.277Z,19.19
2023-11-24T18:12:42.115Z,19.18
2023-11-24T18:15:08.906Z,19.15
2023-11-24T18:17:35.713Z,19.13
2023-11-24T18:20:02.535Z,19.13
2023-11-24T18:22:29.375Z,19.08
2023-11-24T18:24:56.200Z,19.10
2023-11-24T18:27:23.015Z,19.05
2023-11-24T18:29:49.815Z,19.03
2023-11-24T18:32:16.592Z,19.04
2023-11-24T18:34:43.376Z,19.02
2023-11-24T18:37:10.198Z,19.01
2023-11-24T18:39:37.026Z,19.00
2023-11-24T18:42:03.882Z,18.99
2023-11-24T18:44:30.713Z,18.95
2023-11-24T18:46:57.493Z,18.93
2023-11-24T18:49:24.359Z,18.90
2023-11-24T18:51:51.186Z,18.89
2023-11-24T18:54:18.009Z,18.85
2023-11-24T18:56:44.784Z,18.87
2023-11-24T18:59:11.668Z,18.88
2023-11-24T19:01:38.611Z,18.86
2023-11-24T19:04:05.638Z,18.84
2023-11-24T19:06:32.511Z,18.84
2023-11-24T19:08:59.331Z,18.84
2023-11-24T19:11:26.172Z,18.81
2023-11-24T19:13:52.930Z,18.81
2023-11-24T19:16:19.808Z,18.80
2023-11-24T19:18:46.639Z,18.82
2023-11-24T19:21:13.466Z,18.77
2023-11-24T19:23:40.294Z,18.75
2023-11-24T19:26:07.140Z,18.76
2023-11-24T19:28:34.103Z,18.75
2023-11-24T19:31:00.982Z,18.74
2023-11-24T19:33:27.804Z,18.70
2023-11-24T19:35:54.598Z,18.69
2023-11-24T19:38:21.417Z,18.68
2023-11-24T19:40:48.281Z,18.64
2023-11-24T19:43:15.120Z,18.66
2023-11-24T19:45:41.965Z,18.63
2023-11-24T19:48:08.813Z,18.60
2023-11-24T19:50:35.796Z,18.61
2023-11-24T19:53:02.659Z,18.58
2023-11-24T19:55:29.540Z,18.57
2023-11-24T19:57:56.786Z,18.56
2023-11-24T20:00:23.755Z,18.56
2023-11-24T20:02:50.699Z,18.54
2023-11-24T20:05:17.518Z,18.55
2023-11-24T20:07:44.313Z,18.51
2023-11-24T20:10:11.141Z,18.50
2023-11-24T20:12:38.000Z,18.49
2023-11-24T20:15:04.810Z,18.47
2023-11-24T20:17:31.702Z,18.49
2023-11-24T20:19:58.545Z,18.51
2023-11-24T20:22:25.452Z,18.50
2023-11-24T20:24:52.306Z,18.49
2023-11-24T20:27:19.095Z,18.48
2023-11-24T20:29:45.870Z,18.51
2023-11-24T20:32:12.717Z,18.47
2023-11-24T20:34:39.617Z,18.45
2023-11-24T20:37:06.517Z,18.45
2023-11-24T20:39:33.466Z,18.49
2023-11-24T20:42:00.252Z,18.44
2023-11-24T20:44:27.028Z,18.43
2023-11-24T20:46:53.913Z,18.43
2023-11-24T20:49:20.770Z,18.50
2023-11-24T20:51:47.602Z,18.35
2023-11-24T20:54:14.460Z,18.34
2023-11-24T20:56:41.254Z,18.41
2023-11-24T20:59:08.053Z,18.57
2023-11-24T21:01:35.129Z,18.63
2023-11-24T21:04:02.105Z,18.37
2023-11-24T21:06:28.965Z,18.30
2023-11-24T21:08:55.773Z,18.29
2023-11-24T21:11:22.584Z,18.30
2023-11-24T21:13:49.425Z,18.28
2023-11-24T21:16:16.264Z,18.37
2023-11-24T21:18:43.095Z,18.33
2023-11-24T21:21:09.890Z,18.24
2023-11-24T21:23:36.694Z,18.22
2023-11-24T21:26:03.491Z,18.22
2023-11-24T21:28:30.307Z,18.22
2023-11-24T21:30:57.202Z,18.19
2023-11-24T21:33:24.116Z,18.40
2023-11-24T21:35:51.000Z,18.23
2023-11-24T21:38:17.855Z,18.15
2023-11-24T21:40:44.733Z,18.12
2023-11-24T21:43:11.522Z,18.10
2023-11-24T21:45:38.358Z,18.11
2023-11-24T21:48:05.180Z,18.08
2023-11-24T21:50:32.087Z,18.10
2023-11-24T21:52:58.970Z,18.12
2023-11-24T21:55:25.861Z,18.09
2023-11-24T21:57:52.769Z,18.09
2023-11-24T22:00:19.635Z,18.09
2023-11-24T22:02:46.657Z,18.09
2023-11-24T22:05:13.682Z,18.10
2023-11-24T22:07:40.596Z,18.06
2023-11-24T22:10:07.526Z,18.06
2023-11-24T22:12:37.374Z,18.06
2023-11-24T22:15:04.687Z,18.06
2023-11-24T22:17:31.615Z,18.05
2023-11-24T22:19:58.541Z,18.05
2023-11-24T22:22:25.419Z,18.05
2023-11-24T22:24:52.339Z,18.01
2023-11-24T22:27:19.172Z,17.97
2023-11-24T22:29:57.497Z,17.97
2023-11-24T22:32:28.547Z,17.98
2023-11-24T22:34:55.388Z,17.99
2023-11-24T22:37:22.211Z,17.97
2023-11-24T22:39:49.056Z,17.95
2023-11-24T22:42:15.913Z,17.94
2023-11-24T22:44:42.742Z,17.90
2023-11-24T22:47:09.623Z,17.78
2023-11-24T22:49:36.525Z,17.74
2023-11-24T22:52:03.410Z,17.71
2023-11-24T22:54:30.239Z,17.71
2023-11-24T22:56:57.050Z,17.69
2023-11-24T22:59:23.832Z,17.67
2023-11-24T23:01:50.728Z,17.68
2023-11-24T23:04:17.647Z,17.69
2023-11-24T23:06:44.555Z,17.66
2023-11-24T23:09:11.432Z,17.64
2023-11-24T23:11:38.241Z,17.69
2023-11-24T23:14:05.047Z,17.67
2023-11-24T23:16:31.899Z,17.67
2023-11-24T23:18:58.711Z,17.63
2023-11-24T23:21:25.541Z,17.62
2023-11-24T23:23:52.390Z,17.63
2023-11-24T23:26:19.300Z,17.64
2023-11-24T23:28:46.176Z,17.62
2023-11-24T23:31:13.142Z,17.65
2023-11-24T23:33:40.073Z,17.67
2023-11-24T23:36:06.914Z,17.62
2023-11-24T23:38:33.793Z,17.66
2023-11-24T23:41:00.612Z,17.67
2023-11-24T23:43:27.580Z,17.64
2023-11-24T23:45:54.465Z,17.59
2023-11-24T23:48:21.347Z,17.59
2023-11-24T23:50:48.353Z,17.59
2023-11-24T23:53:15.166Z,17.57
2023-11-24T23:55:41.977Z,17.55
2023-11-24T23:58:08.887Z,17.55
